Time;durP1;ratioP1;P1;durP2;ratioP2;P2;SDS_P1;SDS_P2;PMS_P1;PMS_P2;Temp;Humidity;BMP_temperature;BMP_pressure;BME280_temperature;BME280_humidity;BME280_pressure;Samples;Min_cycle;Max_cycle;Signal;HPM_P1;HPM_P2
2021/03/27 00:06:30;;;;;;;1.23;0.63;;;14.20;99.90;;;;;;20846758;28;20241;-67
2021/03/27 00:16:39;;;;;;;2.20;1.50;;;14.30;99.90;;;;;;20860746;28;20197;-67
2021/03/27 00:26:45;;;;;;;2.60;1.50;;;14.30;99.90;;;;;;20697182;28;20696;-68
2021/03/27 00:36:52;;;;;;;1.97;1.87;;;14.40;99.90;;;;;;20744575;28;20232;-67
2021/03/27 00:46:59;;;;;;;1.57;1.47;;;14.20;99.90;;;;;;20776503;28;20221;-67
2021/03/27 00:57:08;;;;;;;1.10;1.10;;;14.30;99.90;;;;;;20776448;28;20583;-66
2021/03/27 01:07:14;;;;;;;0.90;0.90;;;14.10;99.90;;;;;;20774616;28;20229;-67
2021/03/27 01:17:23;;;;;;;1.50;1.40;;;14.10;99.90;;;;;;20779636;28;20198;-67
2021/03/27 01:27:29;;;;;;;2.17;1.50;;;13.90;99.90;;;;;;20857014;28;20701;-67
2021/03/27 01:37:44;;;;;;;0.73;0.73;;;13.80;99.90;;;;;;20849555;28;20197;-68
2021/03/27 01:47:51;;;;;;;1.33;1.23;;;13.70;99.90;;;;;;20836827;28;20217;-68
2021/03/27 01:58:01;;;;;;;1.07;0.90;;;13.60;99.90;;;;;;20854851;28;20449;-67
2021/03/27 02:08:11;;;;;;;2.90;1.37;;;13.60;99.90;;;;;;20852383;28;20225;-68
2021/03/27 02:18:22;;;;;;;1.87;1.77;;;13.60;99.90;;;;;;20835367;28;20197;-67
2021/03/27 02:28:42;;;;;;;0.87;0.53;;;13.60;99.90;;;;;;20853962;28;20532;-67
2021/03/27 02:39:05;;;;;;;0.73;0.53;;;13.70;99.90;;;;;;20786362;28;20202;-69
2021/03/27 02:49:28;;;;;;;0.70;0.70;;;13.50;99.90;;;;;;20770519;28;20229;-68
2021/03/27 02:59:42;;;;;;;14.00;2.93;;;13.50;99.90;;;;;;20769248;28;20194;-68
2021/03/27 03:09:52;;;;;;;0.20;0.20;;;13.40;99.90;;;;;;20770108;28;20257;-68
2021/03/27 03:19:59;;;;;;;1.17;0.57;;;13.20;99.90;;;;;;20807678;28;20208;-70
2021/03/27 03:30:20;;;;;;;0.70;0.70;;;13.20;99.90;;;;;;20865320;28;20363;-68
2021/03/27 03:40:43;;;;;;;0.87;0.87;;;13.00;99.90;;;;;;20862750;28;20224;-69
2021/03/27 03:50:54;;;;;;;0.40;0.30;;;12.90;99.90;;;;;;20863337;28;20221;-68
2021/03/27 04:01:05;;;;;;;0.20;0.10;;;12.70;99.90;;;;;;20861780;28;20225;-67
2021/03/27 04:11:30;;;;;;;0.67;0.67;;;12.30;99.90;;;;;;20864044;28;20248;-68
2021/03/27 04:21:39;;;;;;;3.60;1.23;;;12.20;99.90;;;;;;20860426;28;20543;-67
2021/03/27 04:31:45;;;;;;;2.60;0.87;;;12.20;99.90;;;;;;20852297;28;20556;-67
2021/03/27 04:42:00;;;;;;;1.80;0.83;;;11.90;99.90;;;;;;20776396;28;20214;-67
2021/03/27 04:52:14;;;;;;;0.67;0.67;;;11.80;99.90;;;;;;20774474;28;20275;-68
2021/03/27 05:02:22;;;;;;;0.60;0.60;;;11.80;99.90;;;;;;20775873;28;20252;-70
2021/03/27 05:12:33;;;;;;;1.10;1.10;;;12.10;99.90;;;;;;20813954;28;20571;-68
2021/03/27 05:22:47;;;;;;;0.40;0.40;;;12.00;99.90;;;;;;20856167;28;20679;-67
2021/03/27 05:33:18;;;;;;;0.20;0.20;;;12.10;99.90;;;;;;20854096;28;20193;-68
2021/03/27 05:43:46;;;;;;;5.10;1.07;;;12.10;99.90;;;;;;20855757;28;20625;-67
2021/03/27 05:54:11;;;;;;;1.27;1.17;;;12.20;99.90;;;;;;20856077;28;20189;-67
2021/03/27 06:04:48;;;;;;;2.73;1.77;;;12.50;99.90;;;;;;20853475;28;20237;-66
2021/03/27 06:15:36;;;;;;;2.23;2.10;;;12.80;99.90;;;;;;20853201;28;20443;-67
2021/03/27 06:25:53;;;;;;;1.37;1.27;;;13.10;99.90;;;;;;20835414;28;20290;-68
2021/03/27 06:36:08;;;;;;;4.00;1.60;;;13.40;99.90;;;;;;20853610;28;20717;-68
2021/03/27 06:46:31;;;;;;;2.93;2.20;;;13.50;99.90;;;;;;20853539;28;20229;-71
2021/03/27 06:56:45;;;;;;;11.53;2.63;;;13.80;99.90;;;;;;20867831;28;20197;-68
2021/03/27 07:07:23;;;;;;;2.30;1.37;;;14.20;99.90;;;;;;20846841;28;20225;-66
2021/03/27 07:17:49;;;;;;;1.53;1.43;;;14.50;99.90;;;;;;20857333;28;20189;-69
2021/03/27 07:28:12;;;;;;;2.37;1.33;;;14.70;99.90;;;;;;20864912;28;20554;-67
2021/03/27 07:38:39;;;;;;;3.23;2.30;;;15.40;99.90;;;;;;20862091;28;20201;-67
2021/03/27 07:49:01;;;;;;;1.90;1.70;;;15.60;99.90;;;;;;20778588;28;20320;-66
2021/03/27 07:59:37;;;;;;;0.40;0.40;;;15.60;99.90;;;;;;20779405;28;20204;-66
2021/03/27 08:10:08;;;;;;;1.07;1.03;;;15.50;99.90;;;;;;20852665;28;20217;-69
2021/03/27 08:20:40;;;;;;;0.53;0.40;;;15.40;99.90;;;;;;20828020;28;20594;-69
2021/03/27 08:31:41;;;;;;;0.90;0.83;;;15.70;99.90;;;;;;20859909;28;20934;-69
2021/03/27 08:42:01;;;;;;;1.63;1.53;;;16.00;99.90;;;;;;20798597;28;20680;-67
2021/03/27 08:52:24;;;;;;;0.87;0.43;;;15.90;99.90;;;;;;20745447;28;20225;-69
2021/03/27 09:03:00;;;;;;;1.27;1.17;;;16.10;99.90;;;;;;20794603;28;20264;-69
2021/03/27 09:13:25;;;;;;;0.23;0.23;;;16.40;99.90;;;;;;20769870;28;20206;-69
2021/03/27 09:23:40;;;;;;;0.30;0.20;;;16.80;99.90;;;;;;20827564;28;20297;-69
2021/03/27 09:33:54;;;;;;;0.20;0.20;;;16.70;99.90;;;;;;20853644;28;20205;-71
2021/03/27 09:44:12;;;;;;;0.20;0.10;;;16.80;99.90;;;;;;20773363;28;20229;-69
2021/03/27 09:54:20;;;;;;;0.20;0.20;;;17.00;99.90;;;;;;20695248;28;20206;-72
2021/03/27 10:04:54;;;;;;;5.20;1.40;;;17.80;99.90;;;;;;20764559;28;20233;-70
2021/03/27 10:15:03;;;;;;;0.40;0.40;;;18.00;99.90;;;;;;20763609;28;20672;-68
2021/03/27 10:25:26;;;;;;;0.83;0.57;;;17.00;99.90;;;;;;20843252;28;20244;-68
2021/03/27 10:36:06;;;;;;;1.90;0.77;;;17.20;99.90;;;;;;20860267;28;20198;-70
2021/03/27 10:46:18;;;;;;;19.97;0.73;;;17.50;99.90;;;;;;20784304;28;20248;-72
2021/03/27 10:56:52;;;;;;;0.20;0.10;;;17.70;99.90;;;;;;20781964;28;20656;-69
2021/03/27 11:07:30;;;;;;;0.20;0.20;;;18.30;99.90;;;;;;20689055;28;20339;-68
2021/03/27 11:18:06;;;;;;;0.53;0.43;;;18.80;99.90;;;;;;20629245;28;20194;-70
2021/03/27 11:28:18;;;;;;;0.63;0.63;;;19.30;99.90;;;;;;20762778;28;20603;-69
2021/03/27 11:38:29;;;;;;;0.63;0.63;;;20.20;99.90;;;;;;20764061;28;20324;-74
2021/03/27 11:48:43;;;;;;;0.73;0.73;;;20.20;99.90;;;;;;20762876;28;20308;-70
2021/03/27 12:09:35;;;;;;;0.40;0.30;;;21.60;99.90;;;;;;20855617;28;20429;-70
2021/03/27 12:19:48;;;;;;;0.47;0.30;;;21.80;99.90;;;;;;20860945;28;20551;-71
2021/03/27 12:30:04;;;;;;;1.80;0.30;;;22.10;99.90;;;;;;20856808;28;20570;-71
2021/03/27 12:40:22;;;;;;;0.20;0.20;;;22.50;99.90;;;;;;20860022;28;20675;-69
2021/03/27 12:50:53;;;;;;;2.33;1.07;;;22.20;99.90;;;;;;20839923;28;20540;-71
2021/03/27 13:01:08;;;;;;;0.20;0.20;;;22.50;99.90;;;;;;20838132;28;20249;-74
2021/03/27 13:11:24;;;;;;;0.83;0.77;;;22.30;99.90;;;;;;20856449;28;20228;-74
2021/03/27 13:21:43;;;;;;;0.60;0.60;;;21.90;99.90;;;;;;20856168;28;20221;-72
2021/03/27 13:31:58;;;;;;;1.07;0.97;;;22.20;99.90;;;;;;20859039;28;20626;-76
2021/03/27 13:42:29;;;;;;;0.53;0.53;;;21.70;99.90;;;;;;20854566;28;20224;-75
2021/03/27 13:52:37;;;;;;;2.10;0.80;;;22.30;99.90;;;;;;20835889;28;20205;-71
2021/03/27 14:03:19;;;;;;;1.20;1.10;;;21.90;99.90;;;;;;20852947;28;20577;-71
2021/03/27 14:13:27;;;;;;;4.70;3.97;;;22.40;99.90;;;;;;20852246;28;20682;-73
2021/03/27 14:23:44;;;;;;;7.97;0.60;;;22.50;99.90;;;;;;20853997;28;20312;-73
2021/03/27 14:34:01;;;;;;;6.40;1.33;;;22.30;99.90;;;;;;20853922;28;20201;-75
2021/03/27 14:44:15;;;;;;;0.20;0.20;;;21.40;99.90;;;;;;20852988;28;20287;-72
2021/03/27 14:54:38;;;;;;;0.40;0.23;;;21.30;99.90;;;;;;20852217;28;20193;-72
2021/03/27 15:04:55;;;;;;;1.50;0.97;;;20.70;99.90;;;;;;20851881;28;20267;-71
2021/03/27 15:15:09;;;;;;;4.20;3.03;;;19.80;99.90;;;;;;20843967;28;20543;-70
2021/03/27 15:35:51;;;;;;;9.47;1.87;;;18.40;99.90;;;;;;20867131;28;20246;-71
2021/03/27 15:46:00;;;;;;;0.20;0.20;;;19.10;99.90;;;;;;20865317;28;20835;-73
2021/03/27 15:56:15;;;;;;;1.60;0.40;;;18.30;99.90;;;;;;20862250;28;20240;-69
2021/03/27 16:06:42;;;;;;;0.90;0.87;;;18.00;99.90;;;;;;20816319;28;20731;-69
2021/03/27 16:17:32;;;;;;;0.40;0.40;;;18.20;99.90;;;;;;20697617;28;20746;-70
2021/03/27 16:27:49;;;;;;;0.43;0.43;;;17.30;99.90;;;;;;20823838;28;20314;-69
2021/03/27 16:38:10;;;;;;;1.90;0.50;;;17.20;99.90;;;;;;20858551;28;20251;-68
2021/03/27 16:48:28;;;;;;;0.80;0.50;;;17.10;99.90;;;;;;20858062;28;20558;-68
2021/03/27 16:58:34;;;;;;;0.60;0.23;;;16.70;99.90;;;;;;20810005;28;20527;-68
2021/03/27 17:08:52;;;;;;;1.30;0.67;;;16.40;99.90;;;;;;20856432;28;20259;-69
2021/03/27 17:19:19;;;;;;;5.70;0.50;;;16.50;99.90;;;;;;20789149;28;20200;-69
2021/03/27 17:29:40;;;;;;;1.80;0.77;;;16.20;99.90;;;;;;20853470;28;20312;-69
2021/03/27 17:39:48;;;;;;;3.87;1.60;;;15.80;99.90;;;;;;20853892;28;20192;-69
2021/03/27 17:50:03;;;;;;;0.20;0.10;;;15.60;99.90;;;;;;20821284;28;20232;-69
2021/03/27 18:00:22;;;;;;;1.33;0.93;;;15.30;99.90;;;;;;20850868;28;20193;-69
2021/03/27 18:10:30;;;;;;;2.10;0.67;;;15.00;99.90;;;;;;20851894;28;20300;-71
2021/03/27 18:20:57;;;;;;;0.20;0.10;;;14.90;99.90;;;;;;20848935;28;20197;-70
2021/03/27 18:31:06;;;;;;;2.30;0.67;;;14.80;99.90;;;;;;20831934;28;20229;-69
2021/03/27 18:41:15;;;;;;;0.30;0.30;;;14.70;99.90;;;;;;20766071;28;20723;-71
2021/03/27 18:51:23;;;;;;;4.07;0.97;;;14.80;99.90;;;;;;20778899;28;20218;-70
2021/03/27 19:01:32;;;;;;;0.20;0.10;;;14.70;99.90;;;;;;20785156;28;20234;-71
2021/03/27 19:11:40;;;;;;;1.47;0.60;;;14.30;99.90;;;;;;20764523;28;20295;-68
2021/03/27 19:21:47;;;;;;;0.20;0.10;;;14.10;99.90;;;;;;20823554;28;20201;-68
2021/03/27 19:32:05;;;;;;;1.07;1.00;;;13.70;99.90;;;;;;20865077;28;20228;-68
2021/03/27 19:42:20;;;;;;;1.57;1.13;;;13.60;99.90;;;;;;20863245;28;20199;-68
2021/03/27 19:52:32;;;;;;;1.33;1.23;;;13.50;99.90;;;;;;20800645;28;20311;-69
2021/03/27 20:02:40;;;;;;;1.50;0.27;;;13.40;99.90;;;;;;20777605;28;20260;-69
2021/03/27 20:12:49;;;;;;;0.83;0.63;;;13.10;99.90;;;;;;20779237;28;20253;-69
2021/03/27 20:22:57;;;;;;;0.20;0.10;;;13.10;99.90;;;;;;20829366;28;21017;-68
2021/03/27 20:33:16;;;;;;;0.40;0.40;;;13.00;99.90;;;;;;20793883;28;20272;-67
2021/03/27 20:43:35;;;;;;;0.67;0.40;;;13.00;99.90;;;;;;20770449;28;20222;-67
2021/03/27 20:53:46;;;;;;;0.37;0.33;;;12.90;99.90;;;;;;20772017;28;20232;-67
2021/03/27 21:04:07;;;;;;;3.20;0.93;;;12.50;99.90;;;;;;20753546;28;20228;-67
2021/03/27 21:14:14;;;;;;;0.20;0.20;;;12.40;99.90;;;;;;20770444;28;20295;-68
2021/03/27 21:24:32;;;;;;;0.30;0.30;;;12.40;99.90;;;;;;20755556;28;20316;-69
2021/03/27 21:35:01;;;;;;;5.00;0.77;;;12.30;99.90;;;;;;20772954;28;20232;-67
2021/03/27 21:45:30;;;;;;;8.43;1.57;;;12.10;99.90;;;;;;20752338;28;20766;-68
2021/03/27 21:55:43;;;;;;;0.20;0.10;;;12.10;99.90;;;;;;20769783;28;20202;-67
2021/03/27 22:06:01;;;;;;;0.20;0.20;;;12.00;99.90;;;;;;20768981;28;20301;-70
2021/03/27 22:16:28;;;;;;;0.20;0.20;;;11.90;99.90;;;;;;20769632;28;20192;-69
2021/03/27 22:27:00;;;;;;;0.20;0.20;;;11.80;99.90;;;;;;20844220;28;20225;-71
2021/03/27 22:37:09;;;;;;;0.20;0.20;;;11.90;99.90;;;;;;20783004;28;20308;-70
2021/03/27 22:47:45;;;;;;;1.27;1.17;;;12.20;99.90;;;;;;20782136;28;20218;-69
2021/03/27 22:57:50;;;;;;;0.43;0.30;;;11.90;99.90;;;;;;20736562;28;20754;-69
2021/03/27 23:07:58;;;;;;;0.77;0.77;;;11.80;99.90;;;;;;20783052;28;20324;-69
2021/03/27 23:18:09;;;;;;;0.83;0.83;;;11.70;99.90;;;;;;20782414;28;20235;-70
2021/03/27 23:28:17;;;;;;;2.53;1.20;;;11.60;99.90;;;;;;20782485;28;20903;-70
2021/03/27 23:38:44;;;;;;;0.30;0.30;;;11.60;99.90;;;;;;20778651;28;20196;-73
2021/03/27 23:48:57;;;;;;;0.20;0.20;;;11.50;99.90;;;;;;20764738;28;20230;-71
2021/03/27 23:59:10;;;;;;;0.20;0.10;;;11.40;99.90;;;;;;20781886;28;20695;-71
